createdAt,value
2019-06-26T00:00:23.285Z,101503.17
2019-06-26T00:02:55.430Z,101503.09
2019-06-26T00:05:27.407Z,101497.19
2019-06-26T00:07:59.452Z,101499.39
2019-06-26T00:10:31.348Z,101502.05
2019-06-26T00:13:04.731Z,101497.52
2019-06-26T00:15:36.730Z,101498.34
2019-06-26T00:18:08.831Z,101490.70
2019-06-26T00:20:40.798Z,101493.36
2019-06-26T00:23:12.766Z,101497.31
2019-06-26T00:25:44.694Z,101497.77
2019-06-26T00:28:16.777Z,101495.52
2019-06-26T00:30:48.768Z,101497.27
2019-06-26T00:33:20.749Z,101496.70
2019-06-26T00:35:53.065Z,101498.45
2019-06-26T00:38:25.147Z,101492.11
2019-06-26T00:40:57.058Z,101495.17
2019-06-26T00:43:42.062Z,101493.83
2019-06-26T00:46:09.055Z,101496.03
2019-06-26T00:48:41.467Z,101495.08
2019-06-26T00:51:13.446Z,101494.13
2019-06-26T00:53:45.342Z,101497.27
2019-06-26T00:56:17.289Z,101495.48
2019-06-26T00:58:49.485Z,101496.33
2019-06-26T01:01:21.466Z,101493.59
2019-06-26T01:03:55.060Z,101494.44
2019-06-26T01:06:45.245Z,101495.70
2019-06-26T01:09:17.377Z,101490.77
2019-06-26T01:11:49.425Z,101487.13
2019-06-26T01:14:21.401Z,101487.92
2019-06-26T01:16:53.383Z,101482.98
2019-06-26T01:19:25.423Z,101488.27
2019-06-26T01:21:57.317Z,101484.59
2019-06-26T01:24:29.393Z,101488.63
2019-06-26T01:27:01.306Z,101481.84
2019-06-26T01:29:33.270Z,101489.41
2019-06-26T01:32:06.725Z,101483.92
2019-06-26T01:34:38.858Z,101477.20
2019-06-26T01:37:11.825Z,101474.95
2019-06-26T01:39:44.584Z,101483.47
2019-06-26T01:42:16.499Z,101471.35
2019-06-26T01:44:48.535Z,101472.55
2019-06-26T01:47:20.442Z,101475.69
2019-06-26T01:49:52.424Z,101479.72
2019-06-26T01:52:24.250Z,101471.59
2019-06-26T01:54:56.272Z,101476.02
2019-06-26T01:57:28.281Z,101476.86
2019-06-26T02:00:00.283Z,101471.86
2019-06-26T02:02:32.353Z,101474.95
2019-06-26T02:05:06.395Z,101474.95
2019-06-26T02:07:38.374Z,101474.05
2019-06-26T02:10:10.931Z,101477.58
2019-06-26T02:12:43.146Z,101474.89
2019-06-26T02:15:16.218Z,101476.23
2019-06-26T02:17:48.203Z,101471.19
2019-06-26T02:20:20.285Z,101475.22
2019-06-26T02:22:52.589Z,101475.61
2019-06-26T02:25:24.487Z,101477.25
2019-06-26T02:27:56.842Z,101475.39
2019-06-26T02:30:28.851Z,101479.05
2019-06-26T02:33:00.991Z,101481.72
2019-06-26T02:35:33.125Z,101479.43
2019-06-26T02:38:05.063Z,101479.42
2019-06-26T02:40:37.214Z,101477.63
2019-06-26T02:43:09.736Z,101482.50
2019-06-26T02:45:42.016Z,101471.30
2019-06-26T02:48:14.089Z,101472.12
2019-06-26T02:50:46.128Z,101472.95
2019-06-26T02:53:18.195Z,101465.30
2019-06-26T02:55:50.231Z,101466.63
2019-06-26T02:58:22.146Z,101467.97
2019-06-26T03:00:54.342Z,101471.09
2019-06-26T03:03:26.488Z,101467.46
2019-06-26T03:05:58.415Z,101468.44
2019-06-26T03:08:30.388Z,101471.61
2019-06-26T03:11:02.484Z,101464.41
2019-06-26T03:13:34.304Z,101469.38
2019-06-26T03:16:06.486Z,101464.51
2019-06-26T03:18:38.648Z,101468.61
2019-06-26T03:21:10.680Z,101466.49
2019-06-26T03:23:42.687Z,101461.27
2019-06-26T03:26:14.665Z,101466.77
2019-06-26T03:28:46.671Z,101465.05
2019-06-26T03:31:18.725Z,101466.48
2019-06-26T03:33:50.816Z,101467.88
2019-06-26T03:36:23.002Z,101470.59
2019-06-26T03:38:55.035Z,101471.13
2019-06-26T03:41:27.147Z,101468.95
2019-06-26T03:43:58.990Z,101456.91
2019-06-26T03:46:31.095Z,101457.41
2019-06-26T03:49:03.000Z,101454.77
2019-06-26T03:51:35.066Z,101462.89
2019-06-26T03:54:07.140Z,101453.09
2019-06-26T03:56:39.098Z,101462.65
2019-06-26T03:59:11.105Z,101451.54
2019-06-26T04:01:43.316Z,101456.17
2019-06-26T04:04:15.392Z,101454.42
2019-06-26T04:06:47.393Z,101454.14
2019-06-26T04:09:19.416Z,101455.09
2019-06-26T04:11:51.422Z,101456.56
2019-06-26T04:14:23.382Z,101464.73
2019-06-26T04:16:55.601Z,101455.89
2019-06-26T04:19:27.697Z,101458.70
2019-06-26T04:21:59.739Z,101460.16
2019-06-26T04:24:31.733Z,101454.89
2019-06-26T04:27:03.860Z,101458.14
2019-06-26T04:29:35.854Z,101455.58
2019-06-26T04:32:09.085Z,101453.87
2019-06-26T04:34:40.838Z,101457.56
2019-06-26T04:37:12.813Z,101457.71
2019-06-26T04:39:44.766Z,101451.50
2019-06-26T04:42:16.746Z,101452.92
2019-06-26T04:44:48.752Z,101453.92
2019-06-26T04:47:20.585Z,101447.72
2019-06-26T04:49:52.588Z,101449.12
2019-06-26T04:52:24.517Z,101448.73
2019-06-26T04:54:56.679Z,101436.64
2019-06-26T04:57:28.579Z,101443.45
2019-06-26T05:00:00.490Z,101445.80
2019-06-26T05:02:32.465Z,101437.73
2019-06-26T05:05:06.556Z,101438.19
2019-06-26T05:07:38.748Z,101436.87
2019-06-26T05:10:11.098Z,101426.51
2019-06-26T05:12:43.159Z,101433.29
2019-06-26T05:15:15.522Z,101426.06
2019-06-26T05:17:47.492Z,101435.06
2019-06-26T05:20:19.526Z,101423.31
2019-06-26T05:22:51.825Z,101421.00
2019-06-26T05:25:23.632Z,101420.53
2019-06-26T05:27:55.846Z,101419.18
2019-06-26T05:30:27.986Z,101416.41
2019-06-26T05:33:00.219Z,101412.73
2019-06-26T05:35:35.023Z,101410.88
2019-06-26T05:38:06.153Z,101413.48
2019-06-26T05:40:38.207Z,101409.83
2019-06-26T05:43:10.181Z,101411.96
2019-06-26T05:45:42.132Z,101408.75
2019-06-26T05:48:14.287Z,101414.01
2019-06-26T05:50:46.407Z,101415.25
2019-06-26T05:53:18.379Z,101412.36
2019-06-26T05:55:50.332Z,101407.69
2019-06-26T05:58:22.348Z,101412.54
2019-06-26T06:00:55.397Z,101411.06
2019-06-26T06:03:27.450Z,101413.64
2019-06-26T06:05:59.486Z,101408.11
2019-06-26T06:08:31.464Z,101410.23
2019-06-26T06:11:03.549Z,101411.84
2019-06-26T06:13:35.575Z,101410.83
2019-06-26T06:16:07.548Z,101410.17
2019-06-26T06:18:39.588Z,101409.97
2019-06-26T06:21:11.499Z,101412.21
2019-06-26T06:23:43.335Z,101409.80
2019-06-26T06:26:15.493Z,101412.30
2019-06-26T06:28:47.566Z,101412.63
2019-06-26T06:31:20.831Z,101411.18
2019-06-26T06:33:52.841Z,101408.37
2019-06-26T06:36:25.979Z,101408.12
2019-06-26T06:38:57.874Z,101405.25
2019-06-26T06:41:29.807Z,101409.33
2019-06-26T06:44:01.813Z,101409.13
2019-06-26T06:46:33.956Z,101407.71
2019-06-26T06:49:06.032Z,101408.03
2019-06-26T06:51:38.311Z,101408.25
2019-06-26T06:54:10.366Z,101402.69
2019-06-26T06:56:42.533Z,101404.31
2019-06-26T06:59:14.498Z,101403.67
2019-06-26T07:01:46.457Z,101405.78
2019-06-26T07:04:18.543Z,101405.55
2019-06-26T07:06:50.438Z,101401.81
2019-06-26T07:09:24.855Z,101401.34
2019-06-26T07:11:56.897Z,101403.95
2019-06-26T07:14:29.037Z,101406.34
2019-06-26T07:17:01.601Z,101397.88
2019-06-26T07:19:33.829Z,101393.13
2019-06-26T07:22:07.549Z,101397.00
2019-06-26T07:24:39.539Z,101398.17
2019-06-26T07:27:11.547Z,101401.58
2019-06-26T07:29:43.379Z,101394.70
2019-06-26T07:32:15.413Z,101399.02
2019-06-26T07:34:47.822Z,101393.34
2019-06-26T07:37:20.330Z,101391.83
2019-06-26T07:39:52.377Z,101394.41
2019-06-26T07:42:24.402Z,101396.53
2019-06-26T07:44:57.687Z,101385.83
2019-06-26T07:47:42.415Z,101396.70
2019-06-26T07:50:03.394Z,101390.05
2019-06-26T07:52:35.823Z,101389.88
2019-06-26T07:55:11.772Z,101385.06
2019-06-26T07:57:43.247Z,101386.31
2019-06-26T08:00:16.192Z,101381.42
2019-06-26T08:02:48.746Z,101385.20
2019-06-26T08:05:21.053Z,101375.48
2019-06-26T08:07:58.536Z,101376.82
2019-06-26T08:10:33.558Z,101375.16
2019-06-26T08:13:05.666Z,101366.62
2019-06-26T08:15:37.634Z,101372.66
2019-06-26T08:18:09.509Z,101373.09
2019-06-26T08:20:55.491Z,101372.79
2019-06-26T08:23:15.145Z,101368.82
2019-06-26T08:25:47.189Z,101367.45
2019-06-26T08:28:19.255Z,101365.00
2019-06-26T08:30:51.381Z,101367.06
2019-06-26T08:33:23.357Z,101358.41
2019-06-26T08:35:55.474Z,101360.62
2019-06-26T08:38:27.358Z,101347.70
2019-06-26T08:40:59.357Z,101346.86
2019-06-26T08:43:31.668Z,101345.86
2019-06-26T08:46:03.605Z,101339.80
2019-06-26T08:48:40.027Z,101345.30
2019-06-26T08:51:09.264Z,101344.94
2019-06-26T08:53:41.540Z,101338.94
2019-06-26T08:56:13.612Z,101343.72
2019-06-26T08:58:45.507Z,101336.16
2019-06-26T09:01:17.538Z,101340.69
2019-06-26T09:03:49.494Z,101338.20
2019-06-26T09:06:21.560Z,101341.94
2019-06-26T09:08:53.548Z,101343.59
2019-06-26T09:11:25.685Z,101339.17
2019-06-26T09:13:58.142Z,101341.14
2019-06-26T09:16:30.236Z,101335.34
2019-06-26T09:19:02.270Z,101336.19
2019-06-26T09:21:42.526Z,101332.23
2019-06-26T09:24:15.015Z,101327.43
2019-06-26T09:26:46.983Z,101325.66
2019-06-26T09:29:19.235Z,101325.89
2019-06-26T09:31:51.207Z,101319.27
2019-06-26T09:34:23.441Z,101320.03
2019-06-26T09:36:55.470Z,101317.77
2019-06-26T09:39:27.720Z,101312.84
2019-06-26T09:41:59.761Z,101311.99
2019-06-26T09:44:31.643Z,101304.11
2019-06-26T09:47:03.725Z,101304.09
2019-06-26T09:49:35.746Z,101302.70
2019-06-26T09:52:07.715Z,101299.13
2019-06-26T09:54:39.832Z,101296.43
2019-06-26T09:57:11.824Z,101296.43
2019-06-26T09:59:43.767Z,101293.05
2019-06-26T10:02:15.912Z,101282.89
2019-06-26T10:04:47.928Z,101285.03
2019-06-26T10:07:20.004Z,101285.03
2019-06-26T10:09:52.001Z,101278.30
2019-06-26T10:12:23.969Z,101276.05
2019-06-26T10:14:55.891Z,101274.83
2019-06-26T10:17:27.834Z,101274.83
2019-06-26T10:19:59.771Z,101273.59
2019-06-26T10:22:31.734Z,101272.87
2019-06-26T10:25:04.416Z,101271.34
2019-06-26T10:27:36.550Z,101260.96
2019-06-26T10:30:09.476Z,101263.93
2019-06-26T10:32:41.423Z,101260.13
2019-06-26T10:35:13.969Z,101254.97
2019-06-26T10:37:45.998Z,101250.41
2019-06-26T10:40:18.722Z,101249.69
2019-06-26T10:42:51.132Z,101247.34
2019-06-26T10:45:23.299Z,101238.48
2019-06-26T10:47:55.399Z,101241.24
2019-06-26T10:50:27.398Z,101238.94
2019-06-26T10:53:00.281Z,101235.69
2019-06-26T10:55:32.315Z,101232.20
2019-06-26T10:58:04.329Z,101228.70
2019-06-26T11:00:36.592Z,101224.52
2019-06-26T11:03:08.597Z,101226.32
2019-06-26T11:05:41.425Z,101214.79
2019-06-26T11:08:13.381Z,101205.97
2019-06-26T11:10:45.352Z,101207.91
2019-06-26T11:13:17.367Z,101214.28
2019-06-26T11:15:49.637Z,101203.91
2019-06-26T11:18:21.508Z,101205.03
2019-06-26T11:20:53.414Z,101201.27
2019-06-26T11:23:25.426Z,101198.02
2019-06-26T11:25:57.420Z,101192.89
2019-06-26T11:28:29.417Z,101183.64
2019-06-26T11:31:01.302Z,101179.20
2019-06-26T11:33:33.268Z,101177.53
2019-06-26T11:36:05.234Z,101175.74
2019-06-26T11:38:37.254Z,101170.95
2019-06-26T11:41:09.225Z,101171.36
2019-06-26T11:43:41.173Z,101167.41
2019-06-26T11:46:13.613Z,101173.78
2019-06-26T11:48:45.819Z,101154.39
2019-06-26T11:51:19.057Z,101153.94
2019-06-26T11:53:51.152Z,101144.11
2019-06-26T11:56:23.281Z,101152.44
2019-06-26T11:58:56.934Z,101137.72
2019-06-26T12:01:29.361Z,101141.59
2019-06-26T12:04:01.316Z,101147.12
2019-06-26T12:06:33.288Z,101147.00
2019-06-26T12:09:08.961Z,101139.80
2019-06-26T12:11:41.179Z,101130.63
2019-06-26T12:14:13.302Z,101133.97
2019-06-26T12:16:45.534Z,101124.42
2019-06-26T12:19:20.892Z,101139.80
2019-06-26T12:21:51.117Z,101124.37
2019-06-26T12:24:26.334Z,101118.63
2019-06-26T12:26:56.750Z,101122.83
2019-06-26T12:29:31.992Z,101130.34
2019-06-26T12:32:02.509Z,101117.89
2019-06-26T12:34:34.384Z,101111.87
2019-06-26T12:37:06.418Z,101102.69
2019-06-26T12:39:38.354Z,101106.19
2019-06-26T12:42:10.320Z,101107.98
2019-06-26T12:44:42.272Z,101098.47
2019-06-26T12:47:14.324Z,101089.38
2019-06-26T12:49:46.198Z,101087.04
2019-06-26T12:52:18.345Z,101087.84
2019-06-26T12:54:50.293Z,101092.23
2019-06-26T12:57:22.258Z,101089.44
2019-06-26T12:59:57.721Z,101074.88
2019-06-26T13:02:27.797Z,101075.98
2019-06-26T13:04:59.744Z,101078.65
2019-06-26T13:07:32.408Z,101079.66
2019-06-26T13:10:07.617Z,101066.83
2019-06-26T13:12:39.825Z,101073.00
2019-06-26T13:15:12.973Z,101062.69
2019-06-26T13:17:45.114Z,101053.02
2019-06-26T13:20:17.141Z,101062.38
2019-06-26T13:22:49.742Z,101065.56
2019-06-26T13:25:21.757Z,101058.34
2019-06-26T13:27:55.135Z,101048.30
2019-06-26T13:30:34.605Z,101048.73
2019-06-26T13:33:06.638Z,101041.09
2019-06-26T13:35:38.651Z,101043.07
2019-06-26T13:38:10.683Z,101034.83
2019-06-26T13:40:42.692Z,101031.02
2019-06-26T13:43:14.600Z,101036.56
2019-06-26T13:45:46.625Z,101034.19
2019-06-26T13:48:18.596Z,101046.16
2019-06-26T13:50:50.854Z,101037.84
2019-06-26T13:53:25.756Z,101036.41
2019-06-26T13:55:57.715Z,101032.48
2019-06-26T13:58:29.744Z,101033.61
2019-06-26T14:01:01.708Z,101031.72
2019-06-26T14:03:33.744Z,101035.69
2019-06-26T14:06:05.627Z,101014.84
2019-06-26T14:08:37.599Z,101017.58
2019-06-26T14:11:10.136Z,101012.27
2019-06-26T14:13:42.289Z,101019.26
2019-06-26T14:16:14.182Z,101021.77
2019-06-26T14:18:46.183Z,101020.52
2019-06-26T14:21:25.568Z,101015.67
2019-06-26T14:23:51.883Z,101008.62
2019-06-26T14:26:23.893Z,101009.03
2019-06-26T14:28:56.161Z,101011.85
2019-06-26T14:31:28.487Z,100998.38
2019-06-26T14:34:00.451Z,100998.52
2019-06-26T14:36:33.667Z,100989.34
2019-06-26T14:39:07.301Z,100994.60
2019-06-26T14:41:39.402Z,100999.78
2019-06-26T14:44:11.434Z,100997.34
2019-06-26T14:46:43.388Z,100987.62
2019-06-26T14:49:16.414Z,100994.59
2019-06-26T14:51:49.364Z,100991.47
2019-06-26T14:54:21.393Z,100998.34
2019-06-26T14:56:53.280Z,100995.30
2019-06-26T14:59:25.302Z,100990.40
2019-06-26T15:01:57.167Z,100987.27
2019-06-26T15:04:29.211Z,100986.80
2019-06-26T15:07:01.227Z,100990.22
2019-06-26T15:09:33.198Z,100995.01
2019-06-26T15:12:05.144Z,100986.59
2019-06-26T15:14:37.114Z,100988.64
2019-06-26T15:17:09.121Z,100986.53
2019-06-26T15:19:41.207Z,100982.97
2019-06-26T15:22:14.139Z,100985.98
2019-06-26T15:24:46.113Z,100981.27
2019-06-26T15:27:17.993Z,100979.47
2019-06-26T15:29:49.951Z,100978.40
2019-06-26T15:32:21.896Z,100957.34
2019-06-26T15:34:53.786Z,100952.02
2019-06-26T15:40:02.527Z,100940.98
2019-06-26T15:42:34.545Z,100934.59
2019-06-26T15:45:09.550Z,100964.53
2019-06-26T15:47:41.554Z,100922.48
2019-06-26T15:50:14.820Z,100921.09
2019-06-26T15:52:46.763Z,100927.60
2019-06-26T15:55:18.722Z,100917.23
2019-06-26T15:57:50.656Z,100909.97
2019-06-26T16:00:22.777Z,100909.52
2019-06-26T16:02:55.215Z,100914.31
2019-06-26T16:05:27.246Z,100909.58
2019-06-26T16:07:59.179Z,100912.39
2019-06-26T16:10:34.456Z,100907.21
2019-06-26T16:13:05.150Z,100902.07
2019-06-26T16:15:37.601Z,100909.66
2019-06-26T16:18:09.377Z,100902.14
2019-06-26T16:20:41.348Z,100910.88
2019-06-26T16:23:13.800Z,100912.77
2019-06-26T16:25:45.781Z,100916.39
2019-06-26T16:28:17.871Z,100921.75
2019-06-26T16:30:49.765Z,100919.16
2019-06-26T16:33:21.772Z,100927.29
2019-06-26T16:35:53.807Z,100919.77
2019-06-26T16:38:25.764Z,100919.30
2019-06-26T16:40:57.812Z,100920.55
2019-06-26T16:43:29.624Z,100916.22
2019-06-26T16:46:01.714Z,100914.33
2019-06-26T16:48:33.732Z,100917.25
2019-06-26T16:51:05.791Z,100908.06
2019-06-26T16:53:37.893Z,100905.67
2019-06-26T16:56:09.992Z,100909.90
2019-06-26T16:58:41.876Z,100905.98
2019-06-26T17:01:13.768Z,100916.14
2019-06-26T17:03:45.792Z,100910.91
2019-06-26T17:06:17.823Z,100904.92
2019-06-26T17:08:50.103Z,100904.72
2019-06-26T17:11:22.165Z,100909.28
2019-06-26T17:13:54.050Z,100906.81
2019-06-26T17:16:25.941Z,100911.72
2019-06-26T17:18:57.912Z,100903.44
2019-06-26T17:21:30.058Z,100902.44
2019-06-26T17:24:02.000Z,100894.00
2019-06-26T17:26:33.887Z,100892.52
2019-06-26T17:29:05.835Z,100892.06
2019-06-26T17:31:37.887Z,100889.42
2019-06-26T17:34:09.844Z,100882.61
2019-06-26T17:36:41.813Z,100877.19
2019-06-26T17:39:13.795Z,100881.37
2019-06-26T17:41:45.964Z,100872.06
2019-06-26T17:44:18.825Z,100874.74
2019-06-26T17:46:50.779Z,100872.28
2019-06-26T17:49:22.757Z,100874.61
2019-06-26T17:51:54.734Z,100875.22
2019-06-26T17:54:29.652Z,100871.70
2019-06-26T17:57:01.603Z,100870.57
2019-06-26T17:59:33.759Z,100873.28
2019-06-26T18:02:06.943Z,100868.44
2019-06-26T18:04:39.011Z,100874.45
2019-06-26T18:07:10.947Z,100872.58
2019-06-26T18:09:42.901Z,100869.39
2019-06-26T18:12:15.255Z,100865.61
2019-06-26T18:14:47.109Z,100867.61
2019-06-26T18:17:22.425Z,100870.20
2019-06-26T18:19:53.991Z,100874.41
2019-06-26T18:22:26.112Z,100868.86
2019-06-26T18:24:58.128Z,100876.98
2019-06-26T18:27:30.166Z,100876.41
2019-06-26T18:30:03.151Z,100874.88
2019-06-26T18:32:35.326Z,100875.59
2019-06-26T18:35:08.544Z,100879.30
2019-06-26T18:37:40.433Z,100874.73
2019-06-26T18:40:12.844Z,100878.41
2019-06-26T18:42:45.906Z,100877.66
2019-06-26T18:45:18.341Z,100886.34
2019-06-26T18:47:50.386Z,100885.91
2019-06-26T18:50:22.524Z,100881.28
2019-06-26T18:52:54.562Z,100885.25
2019-06-26T18:55:26.425Z,100888.84
2019-06-26T18:57:58.303Z,100888.23
2019-06-26T19:00:30.179Z,100887.34
2019-06-26T19:03:02.161Z,100885.03
2019-06-26T19:05:34.568Z,100887.71
2019-06-26T19:08:06.672Z,100891.46
2019-06-26T19:10:38.700Z,100899.14
2019-06-26T19:13:10.881Z,100897.58
2019-06-26T19:15:42.975Z,100895.65
2019-06-26T19:18:15.437Z,100902.51
2019-06-26T19:20:47.380Z,100899.34
2019-06-26T19:23:20.482Z,100901.83
2019-06-26T19:25:52.578Z,100901.83
2019-06-26T19:28:24.554Z,100911.06
2019-06-26T19:30:56.765Z,100913.52
2019-06-26T19:33:28.866Z,100917.80
2019-06-26T19:36:01.054Z,100921.63
2019-06-26T19:38:33.065Z,100925.82
2019-06-26T19:41:08.523Z,100933.79
2019-06-26T19:43:40.405Z,100942.66
2019-06-26T19:46:12.355Z,100940.16
2019-06-26T19:48:44.236Z,100954.17
2019-06-26T19:51:16.344Z,100952.77
2019-06-26T19:53:48.315Z,100952.40
2019-06-26T19:56:20.336Z,100955.50
2019-06-26T19:58:52.290Z,100962.02
2019-06-26T20:01:24.776Z,100975.94
2019-06-26T20:03:57.007Z,100965.86
2019-06-26T20:06:29.097Z,100962.95
2019-06-26T20:09:04.500Z,100969.88
2019-06-26T20:11:36.674Z,100971.55
2019-06-26T20:14:08.808Z,100986.63
2019-06-26T20:16:40.962Z,100984.15
2019-06-26T20:19:12.966Z,100975.92
2019-06-26T20:21:45.159Z,100982.84
2019-06-26T20:24:17.127Z,100987.05
2019-06-26T20:26:49.124Z,100986.78
2019-06-26T20:29:21.124Z,100991.39
2019-06-26T20:31:53.040Z,100992.86
2019-06-26T20:34:25.699Z,100986.47
2019-06-26T20:36:57.719Z,100991.72
2019-06-26T20:39:29.987Z,101001.09
2019-06-26T20:42:03.063Z,101006.88
2019-06-26T20:44:35.827Z,101004.41
2019-06-26T20:47:07.966Z,101013.80
2019-06-26T20:49:52.773Z,101008.52
2019-06-26T20:52:16.849Z,101019.21
2019-06-26T20:55:01.020Z,101014.98
2019-06-26T20:57:26.286Z,101019.34
2019-06-26T20:59:58.285Z,101022.06
2019-06-26T21:02:30.298Z,101021.33
2019-06-26T21:05:02.350Z,101018.83
2019-06-26T21:07:34.424Z,101022.70
2019-06-26T21:10:06.862Z,101037.16
2019-06-26T21:12:38.756Z,101034.09
2019-06-26T21:15:10.846Z,101045.58
2019-06-26T21:17:42.860Z,101050.64
2019-06-26T21:20:16.167Z,101053.80
2019-06-26T21:22:48.516Z,101057.70
2019-06-26T21:25:20.596Z,101059.83
2019-06-26T21:27:52.532Z,101066.54
2019-06-26T21:30:24.458Z,101066.83
2019-06-26T21:32:56.599Z,101066.20
2019-06-26T21:35:28.526Z,101064.55
2019-06-26T21:38:00.395Z,101072.12
2019-06-26T21:40:32.339Z,101062.27
2019-06-26T21:43:04.277Z,101061.69
2019-06-26T21:45:36.201Z,101072.74
2019-06-26T21:48:08.139Z,101071.98
2019-06-26T21:50:40.078Z,101064.95
2019-06-26T21:53:12.013Z,101074.64
2019-06-26T21:55:44.427Z,101081.08
2019-06-26T21:58:33.991Z,101071.20
2019-06-26T22:01:23.948Z,101074.64
2019-06-26T22:04:14.063Z,101073.44
2019-06-26T22:06:47.727Z,101082.75
2019-06-26T22:09:37.476Z,101079.67
2019-06-26T22:12:09.622Z,101083.05
2019-06-26T22:14:41.713Z,101085.39
2019-06-26T22:17:13.705Z,101089.63
2019-06-26T22:19:45.802Z,101086.58
2019-06-26T22:22:17.857Z,101086.22
2019-06-26T22:24:49.868Z,101085.89
2019-06-26T22:27:21.786Z,101089.59
2019-06-26T22:29:54.124Z,101092.91
2019-06-26T22:32:26.190Z,101095.72
2019-06-26T22:34:58.483Z,101103.05
2019-06-26T22:37:33.500Z,101099.06
2019-06-26T22:40:07.183Z,101105.05
2019-06-26T22:42:39.331Z,101107.77
2019-06-26T22:45:11.713Z,101103.85
2019-06-26T22:47:44.076Z,101107.45
2019-06-26T22:50:16.227Z,101115.25
2019-06-26T22:52:49.198Z,101110.33
2019-06-26T22:55:21.272Z,101110.48
2019-06-26T22:57:53.286Z,101111.09
2019-06-26T23:00:25.682Z,101108.98
2019-06-26T23:02:57.803Z,101110.97
2019-06-26T23:05:29.739Z,101108.35
2019-06-26T23:08:01.670Z,101113.77
2019-06-26T23:10:33.781Z,101122.86
2019-06-26T23:13:09.370Z,101115.63
2019-06-26T23:15:39.606Z,101122.89
2019-06-26T23:18:12.683Z,101124.62
2019-06-26T23:20:44.643Z,101128.23
2019-06-26T23:23:16.642Z,101129.66
2019-06-26T23:25:48.506Z,101125.59
2019-06-26T23:28:20.584Z,101127.88
2019-06-26T23:30:52.517Z,101125.66
2019-06-26T23:33:24.388Z,101132.55
2019-06-26T23:35:56.422Z,101134.93
2019-06-26T23:38:28.306Z,101135.04
2019-06-26T23:41:00.306Z,101141.34
2019-06-26T23:43:32.438Z,101143.16
2019-06-26T23:46:04.506Z,101149.55
2019-06-26T23:48:36.624Z,101156.78
2019-06-26T23:51:08.479Z,101153.70
2019-06-26T23:53:40.383Z,101162.34
2019-06-26T23:56:12.251Z,101161.91
2019-06-26T23:58:44.160Z,101162.86
